East Quogue, New York
Current Conditions -  °F | °C
As of 5:53 AM on Wednesday 22 Oct 2014 (Local Time) from KFOK Reporting Station
Overcast Overcast  
Wind Chill: 58°   Ceiling: 1300
Heat Index: 58°   Visibility: 10mi
Dew Point: 54°   Wind: 17mph
Humidity: 87%   Direction: 40°NE
Pressure: 29.89"   Gusts: 23mph
Location:  40.85°N, 72.58°W
Report Text: KFOK 220953Z 04015G20KT 10SM BKN013 OVC029 14/12 A2989 RMK AO2 SLP121 T01440122
Loading
Personal Weather Stations






























Interactive Weather Map
Tropical Storm Tracking
New forecast layout! Learn more

10-Day Weather Forecast

Advertisements
Track Severe Weather on mobile